sensor_id;sensor_type;location;lat;lon;timestamp;P1;durP1;ratioP1;P2;durP2;ratioP2
44248;SDS011;29923;48.718;9.272;2024-01-15T00:01:07;29.58;;;9.25;;
44248;SDS011;29923;48.718;9.272;2024-01-15T00:03:32;27.08;;;11.70;;
44248;SDS011;29923;48.718;9.272;2024-01-15T00:05:57;18.90;;;7.07;;
44248;SDS011;29923;48.718;9.272;2024-01-15T00:08:23;22.85;;;9.98;;
44248;SDS011;29923;48.718;9.272;2024-01-15T00:10:48;22.52;;;8.88;;
44248;SDS011;29923;48.718;9.272;2024-01-15T00:13:14;26.73;;;11.93;;
44248;SDS011;29923;48.718;9.272;2024-01-15T00:15:39;27.75;;;10.75;;
44248;SDS011;29923;48.718;9.272;2024-01-15T00:18:04;30.98;;;11.85;;
44248;SDS011;29923;48.718;9.272;2024-01-15T00:20:30;27.30;;;9.73;;
44248;SDS011;29923;48.718;9.272;2024-01-15T00:22:55;22.60;;;8.88;;
44248;SDS011;29923;48.718;9.272;2024-01-15T00:25:21;26.00;;;11.35;;
44248;SDS011;29923;48.718;9.272;2024-01-15T00:27:46;24.60;;;9.55;;
44248;SDS011;29923;48.718;9.272;2024-01-15T00:30:11;22.08;;;9.38;;
44248;SDS011;29923;48.718;9.272;2024-01-15T00:32:37;18.70;;;6.35;;
44248;SDS011;29923;48.718;9.272;2024-01-15T00:35:03;29.17;;;12.18;;
44248;SDS011;29923;48.718;9.272;2024-01-15T00:37:28;21.65;;;10.43;;
44248;SDS011;29923;48.718;9.272;2024-01-15T00:39:54;26.95;;;11.15;;
44248;SDS011;29923;48.718;9.272;2024-01-15T00:42:19;26.75;;;10.30;;
44248;SDS011;29923;48.718;9.272;2024-01-15T00:44:44;31.38;;;12.05;;
44248;SDS011;29923;48.718;9.272;2024-01-15T00:47:10;26.58;;;10.85;;
44248;SDS011;29923;48.718;9.272;2024-01-15T00:49:35;23.83;;;9.75;;
44248;SDS011;29923;48.718;9.272;2024-01-15T00:52:00;25.05;;;11.85;;
44248;SDS011;29923;48.718;9.272;2024-01-15T00:54:26;25.77;;;11.25;;
44248;SDS011;29923;48.718;9.272;2024-01-15T00:56:51;26.20;;;11.77;;
44248;SDS011;29923;48.718;9.272;2024-01-15T00:59:17;26.70;;;11.55;;
44248;SDS011;29923;48.718;9.272;2024-01-15T01:01:43;27.38;;;12.23;;
44248;SDS011;29923;48.718;9.272;2024-01-15T01:04:09;27.33;;;11.18;;
44248;SDS011;29923;48.718;9.272;2024-01-15T01:06:35;26.73;;;11.07;;
44248;SDS011;29923;48.718;9.272;2024-01-15T01:09:00;28.60;;;11.27;;
44248;SDS011;29923;48.718;9.272;2024-01-15T01:11:26;27.35;;;11.35;;
44248;SDS011;29923;48.718;9.272;2024-01-15T01:13:51;24.13;;;10.90;;
44248;SDS011;29923;48.718;9.272;2024-01-15T01:16:16;27.75;;;11.73;;
44248;SDS011;29923;48.718;9.272;2024-01-15T01:18:42;32.70;;;12.25;;
44248;SDS011;29923;48.718;9.272;2024-01-15T01:21:07;24.75;;;11.25;;
44248;SDS011;29923;48.718;9.272;2024-01-15T01:23:32;25.13;;;10.07;;
44248;SDS011;29923;48.718;9.272;2024-01-15T01:25:58;26.02;;;10.90;;
44248;SDS011;29923;48.718;9.272;2024-01-15T01:28:23;29.77;;;12.02;;
44248;SDS011;29923;48.718;9.272;2024-01-15T01:30:49;26.13;;;11.52;;
44248;SDS011;29923;48.718;9.272;2024-01-15T01:33:14;27.33;;;12.23;;
44248;SDS011;29923;48.718;9.272;2024-01-15T01:35:39;27.95;;;11.68;;
44248;SDS011;29923;48.718;9.272;2024-01-15T01:38:05;29.70;;;12.15;;
44248;SDS011;29923;48.718;9.272;2024-01-15T01:40:30;25.20;;;11.60;;
44248;SDS011;29923;48.718;9.272;2024-01-15T01:42:56;24.27;;;11.00;;
44248;SDS011;29923;48.718;9.272;2024-01-15T01:45:21;27.75;;;11.45;;
44248;SDS011;29923;48.718;9.272;2024-01-15T01:47:46;26.27;;;10.75;;
44248;SDS011;29923;48.718;9.272;2024-01-15T01:50:12;27.23;;;11.43;;
44248;SDS011;29923;48.718;9.272;2024-01-15T01:52:37;24.77;;;10.43;;
44248;SDS011;29923;48.718;9.272;2024-01-15T01:55:03;26.00;;;9.27;;
44248;SDS011;29923;48.718;9.272;2024-01-15T01:57:30;26.08;;;9.30;;
44248;SDS011;29923;48.718;9.272;2024-01-15T01:59:56;27.13;;;11.05;;
44248;SDS011;29923;48.718;9.272;2024-01-15T02:02:21;28.40;;;11.00;;
44248;SDS011;29923;48.718;9.272;2024-01-15T02:04:47;27.83;;;11.18;;
44248;SDS011;29923;48.718;9.272;2024-01-15T02:07:13;30.00;;;10.57;;
44248;SDS011;29923;48.718;9.272;2024-01-15T02:09:38;30.55;;;12.52;;
44248;SDS011;29923;48.718;9.272;2024-01-15T02:12:04;23.10;;;10.32;;
44248;SDS011;29923;48.718;9.272;2024-01-15T02:14:29;23.80;;;9.90;;
44248;SDS011;29923;48.718;9.272;2024-01-15T02:16:55;33.63;;;13.07;;
44248;SDS011;29923;48.718;9.272;2024-01-15T02:19:20;24.92;;;10.80;;
44248;SDS011;29923;48.718;9.272;2024-01-15T02:21:45;23.20;;;9.32;;
44248;SDS011;29923;48.718;9.272;2024-01-15T02:24:11;26.50;;;10.13;;
44248;SDS011;29923;48.718;9.272;2024-01-15T02:26:36;21.05;;;9.80;;
44248;SDS011;29923;48.718;9.272;2024-01-15T02:29:03;28.17;;;9.95;;
44248;SDS011;29923;48.718;9.272;2024-01-15T02:31:29;23.02;;;9.18;;
44248;SDS011;29923;48.718;9.272;2024-01-15T02:33:55;24.70;;;9.15;;
44248;SDS011;29923;48.718;9.272;2024-01-15T02:36:20;26.38;;;9.98;;
44248;SDS011;29923;48.718;9.272;2024-01-15T02:38:45;24.10;;;9.48;;
44248;SDS011;29923;48.718;9.272;2024-01-15T02:41:11;21.63;;;9.35;;
44248;SDS011;29923;48.718;9.272;2024-01-15T02:43:39;21.13;;;9.13;;
44248;SDS011;29923;48.718;9.272;2024-01-15T02:46:04;24.70;;;9.73;;
44248;SDS011;29923;48.718;9.272;2024-01-15T02:48:29;22.63;;;9.75;;
44248;SDS011;29923;48.718;9.272;2024-01-15T02:50:55;24.80;;;10.00;;
44248;SDS011;29923;48.718;9.272;2024-01-15T02:53:20;22.75;;;9.85;;
44248;SDS011;29923;48.718;9.272;2024-01-15T02:55:45;24.92;;;10.35;;
44248;SDS011;29923;48.718;9.272;2024-01-15T02:58:11;13.25;;;6.20;;
44248;SDS011;29923;48.718;9.272;2024-01-15T03:00:36;25.58;;;10.98;;
44248;SDS011;29923;48.718;9.272;2024-01-15T03:03:02;23.20;;;10.57;;
44248;SDS011;29923;48.718;9.272;2024-01-15T03:05:27;24.70;;;9.68;;
44248;SDS011;29923;48.718;9.272;2024-01-15T03:07:52;25.92;;;10.10;;
44248;SDS011;29923;48.718;9.272;2024-01-15T03:10:18;24.27;;;10.80;;
44248;SDS011;29923;48.718;9.272;2024-01-15T03:12:43;29.25;;;11.77;;
44248;SDS011;29923;48.718;9.272;2024-01-15T03:15:08;24.13;;;11.15;;
44248;SDS011;29923;48.718;9.272;2024-01-15T03:17:34;21.98;;;9.70;;
44248;SDS011;29923;48.718;9.272;2024-01-15T03:19:59;25.05;;;9.68;;
44248;SDS011;29923;48.718;9.272;2024-01-15T03:22:25;25.20;;;10.10;;
44248;SDS011;29923;48.718;9.272;2024-01-15T03:24:52;23.77;;;10.45;;
44248;SDS011;29923;48.718;9.272;2024-01-15T03:27:17;17.17;;;7.50;;
44248;SDS011;29923;48.718;9.272;2024-01-15T03:29:43;26.55;;;12.07;;
44248;SDS011;29923;48.718;9.272;2024-01-15T03:32:08;26.63;;;10.60;;
44248;SDS011;29923;48.718;9.272;2024-01-15T03:34:33;24.98;;;11.02;;
44248;SDS011;29923;48.718;9.272;2024-01-15T03:36:59;18.35;;;7.32;;
44248;SDS011;29923;48.718;9.272;2024-01-15T03:39:24;23.45;;;8.73;;
44248;SDS011;29923;48.718;9.272;2024-01-15T03:41:50;26.98;;;10.05;;
44248;SDS011;29923;48.718;9.272;2024-01-15T03:44:15;23.13;;;10.60;;
44248;SDS011;29923;48.718;9.272;2024-01-15T03:46:40;30.35;;;11.20;;
44248;SDS011;29923;48.718;9.272;2024-01-15T03:49:06;25.25;;;10.40;;
44248;SDS011;29923;48.718;9.272;2024-01-15T03:51:31;16.33;;;6.15;;
44248;SDS011;29923;48.718;9.272;2024-01-15T03:53:56;24.30;;;9.27;;
44248;SDS011;29923;48.718;9.272;2024-01-15T03:56:22;21.52;;;7.30;;
44248;SDS011;29923;48.718;9.272;2024-01-15T03:58:47;24.27;;;10.05;;
44248;SDS011;29923;48.718;9.272;2024-01-15T04:01:12;25.33;;;10.18;;
44248;SDS011;29923;48.718;9.272;2024-01-15T04:03:38;19.63;;;6.35;;
44248;SDS011;29923;48.718;9.272;2024-01-15T04:06:03;25.08;;;9.82;;
44248;SDS011;29923;48.718;9.272;2024-01-15T04:08:29;24.90;;;9.70;;
44248;SDS011;29923;48.718;9.272;2024-01-15T04:10:54;26.00;;;9.57;;
44248;SDS011;29923;48.718;9.272;2024-01-15T04:13:20;22.55;;;9.23;;
44248;SDS011;29923;48.718;9.272;2024-01-15T04:15:46;26.85;;;10.63;;
44248;SDS011;29923;48.718;9.272;2024-01-15T04:18:11;25.88;;;9.82;;
44248;SDS011;29923;48.718;9.272;2024-01-15T04:20:36;21.55;;;8.57;;
44248;SDS011;29923;48.718;9.272;2024-01-15T04:23:02;17.08;;;6.97;;
44248;SDS011;29923;48.718;9.272;2024-01-15T04:25:27;21.13;;;9.20;;
44248;SDS011;29923;48.718;9.272;2024-01-15T04:27:53;23.77;;;7.72;;
44248;SDS011;29923;48.718;9.272;2024-01-15T04:30:18;22.00;;;7.90;;
44248;SDS011;29923;48.718;9.272;2024-01-15T04:32:43;23.80;;;9.52;;
44248;SDS011;29923;48.718;9.272;2024-01-15T04:35:09;23.20;;;9.27;;
44248;SDS011;29923;48.718;9.272;2024-01-15T04:37:34;17.73;;;7.65;;
44248;SDS011;29923;48.718;9.272;2024-01-15T04:39:59;24.55;;;9.18;;
44248;SDS011;29923;48.718;9.272;2024-01-15T04:42:25;23.30;;;9.27;;
44248;SDS011;29923;48.718;9.272;2024-01-15T04:44:51;19.35;;;6.82;;
44248;SDS011;29923;48.718;9.272;2024-01-15T04:47:16;19.83;;;8.07;;
44248;SDS011;29923;48.718;9.272;2024-01-15T04:49:42;24.50;;;8.48;;
44248;SDS011;29923;48.718;9.272;2024-01-15T04:52:07;24.77;;;9.88;;
44248;SDS011;29923;48.718;9.272;2024-01-15T04:54:35;20.15;;;7.20;;
44248;SDS011;29923;48.718;9.272;2024-01-15T04:57:00;20.02;;;7.95;;
44248;SDS011;29923;48.718;9.272;2024-01-15T04:59:26;22.17;;;6.90;;
44248;SDS011;29923;48.718;9.272;2024-01-15T05:01:51;14.80;;;5.65;;
44248;SDS011;29923;48.718;9.272;2024-01-15T05:04:16;23.30;;;8.63;;
44248;SDS011;29923;48.718;9.272;2024-01-15T05:06:42;14.57;;;5.60;;
44248;SDS011;29923;48.718;9.272;2024-01-15T05:09:07;24.83;;;9.20;;
44248;SDS011;29923;48.718;9.272;2024-01-15T05:11:32;23.30;;;10.13;;
44248;SDS011;29923;48.718;9.272;2024-01-15T05:13:58;21.60;;;9.30;;
44248;SDS011;29923;48.718;9.272;2024-01-15T05:16:23;24.15;;;9.85;;
44248;SDS011;29923;48.718;9.272;2024-01-15T05:18:49;20.92;;;7.47;;
44248;SDS011;29923;48.718;9.272;2024-01-15T05:21:14;19.33;;;7.45;;
44248;SDS011;29923;48.718;9.272;2024-01-15T05:23:40;29.13;;;8.20;;
44248;SDS011;29923;48.718;9.272;2024-01-15T05:26:05;14.52;;;5.63;;
44248;SDS011;29923;48.718;9.272;2024-01-15T05:28:30;24.35;;;9.75;;
44248;SDS011;29923;48.718;9.272;2024-01-15T05:30:56;19.20;;;9.15;;
44248;SDS011;29923;48.718;9.272;2024-01-15T05:33:22;20.13;;;7.55;;
44248;SDS011;29923;48.718;9.272;2024-01-15T05:35:48;19.73;;;8.00;;
44248;SDS011;29923;48.718;9.272;2024-01-15T05:38:15;22.80;;;6.97;;
44248;SDS011;29923;48.718;9.272;2024-01-15T05:40:40;21.80;;;7.18;;
44248;SDS011;29923;48.718;9.272;2024-01-15T05:43:06;16.67;;;6.40;;
44248;SDS011;29923;48.718;9.272;2024-01-15T05:45:31;21.75;;;7.82;;
44248;SDS011;29923;48.718;9.272;2024-01-15T05:47:56;18.83;;;8.30;;
44248;SDS011;29923;48.718;9.272;2024-01-15T05:50:22;18.10;;;6.20;;
44248;SDS011;29923;48.718;9.272;2024-01-15T05:52:47;19.40;;;7.88;;
44248;SDS011;29923;48.718;9.272;2024-01-15T05:55:13;23.65;;;10.38;;
44248;SDS011;29923;48.718;9.272;2024-01-15T05:57:38;17.00;;;6.60;;
44248;SDS011;29923;48.718;9.272;2024-01-15T06:00:04;27.90;;;11.45;;
44248;SDS011;29923;48.718;9.272;2024-01-15T06:02:30;20.02;;;6.53;;
44248;SDS011;29923;48.718;9.272;2024-01-15T06:04:55;14.38;;;6.10;;
44248;SDS011;29923;48.718;9.272;2024-01-15T06:07:20;16.63;;;7.53;;
44248;SDS011;29923;48.718;9.272;2024-01-15T06:09:46;23.63;;;9.02;;
44248;SDS011;29923;48.718;9.272;2024-01-15T06:12:11;17.63;;;6.78;;
44248;SDS011;29923;48.718;9.272;2024-01-15T06:14:37;24.55;;;6.82;;
44248;SDS011;29923;48.718;9.272;2024-01-15T06:17:02;17.85;;;6.50;;
44248;SDS011;29923;48.718;9.272;2024-01-15T06:19:28;26.83;;;9.48;;
44248;SDS011;29923;48.718;9.272;2024-01-15T06:21:53;24.15;;;9.48;;
44248;SDS011;29923;48.718;9.272;2024-01-15T06:24:19;20.38;;;7.95;;
44248;SDS011;29923;48.718;9.272;2024-01-15T06:26:46;21.10;;;8.10;;
44248;SDS011;29923;48.718;9.272;2024-01-15T06:29:11;23.73;;;8.73;;
44248;SDS011;29923;48.718;9.272;2024-01-15T06:31:37;24.42;;;9.43;;
44248;SDS011;29923;48.718;9.272;2024-01-15T06:34:02;18.40;;;8.02;;
44248;SDS011;29923;48.718;9.272;2024-01-15T06:36:27;24.33;;;9.82;;
44248;SDS011;29923;48.718;9.272;2024-01-15T06:38:53;26.50;;;9.25;;
44248;SDS011;29923;48.718;9.272;2024-01-15T06:41:18;19.58;;;8.45;;
44248;SDS011;29923;48.718;9.272;2024-01-15T06:43:43;23.05;;;8.68;;
44248;SDS011;29923;48.718;9.272;2024-01-15T06:46:09;19.20;;;7.68;;
44248;SDS011;29923;48.718;9.272;2024-01-15T06:48:34;21.45;;;8.85;;
44248;SDS011;29923;48.718;9.272;2024-01-15T06:50:59;22.63;;;9.90;;
44248;SDS011;29923;48.718;9.272;2024-01-15T06:53:25;22.15;;;8.20;;
44248;SDS011;29923;48.718;9.272;2024-01-15T06:55:50;14.20;;;6.88;;
44248;SDS011;29923;48.718;9.272;2024-01-15T06:58:16;21.98;;;8.40;;
44248;SDS011;29923;48.718;9.272;2024-01-15T07:00:41;22.05;;;10.32;;
44248;SDS011;29923;48.718;9.272;2024-01-15T07:03:07;18.20;;;7.68;;
44248;SDS011;29923;48.718;9.272;2024-01-15T07:05:32;13.90;;;5.47;;
44248;SDS011;29923;48.718;9.272;2024-01-15T07:07:58;17.35;;;7.82;;
44248;SDS011;29923;48.718;9.272;2024-01-15T07:10:23;17.73;;;6.45;;
44248;SDS011;29923;48.718;9.272;2024-01-15T07:12:48;28.60;;;8.95;;
44248;SDS011;29923;48.718;9.272;2024-01-15T07:15:14;17.95;;;5.63;;
44248;SDS011;29923;48.718;9.272;2024-01-15T07:17:39;16.50;;;7.03;;
44248;SDS011;29923;48.718;9.272;2024-01-15T07:20:08;15.48;;;6.22;;
44248;SDS011;29923;48.718;9.272;2024-01-15T07:22:35;15.35;;;5.78;;
44248;SDS011;29923;48.718;9.272;2024-01-15T07:25:00;25.25;;;8.07;;
44248;SDS011;29923;48.718;9.272;2024-01-15T07:27:26;13.30;;;5.43;;
44248;SDS011;29923;48.718;9.272;2024-01-15T07:29:51;14.05;;;6.25;;
44248;SDS011;29923;48.718;9.272;2024-01-15T07:32:17;17.45;;;4.53;;
44248;SDS011;29923;48.718;9.272;2024-01-15T07:34:42;13.00;;;5.90;;
44248;SDS011;29923;48.718;9.272;2024-01-15T07:37:07;16.33;;;6.28;;
44248;SDS011;29923;48.718;9.272;2024-01-15T07:39:33;15.90;;;5.38;;
44248;SDS011;29923;48.718;9.272;2024-01-15T07:41:59;17.67;;;8.65;;
44248;SDS011;29923;48.718;9.272;2024-01-15T07:44:25;14.77;;;6.78;;
44248;SDS011;29923;48.718;9.272;2024-01-15T07:46:50;13.88;;;6.10;;
44248;SDS011;29923;48.718;9.272;2024-01-15T07:49:16;17.95;;;5.18;;
44248;SDS011;29923;48.718;9.272;2024-01-15T07:51:41;17.00;;;6.10;;
44248;SDS011;29923;48.718;9.272;2024-01-15T07:54:08;13.27;;;6.15;;
44248;SDS011;29923;48.718;9.272;2024-01-15T07:56:34;12.52;;;5.63;;
44248;SDS011;29923;48.718;9.272;2024-01-15T07:58:59;20.42;;;7.93;;
44248;SDS011;29923;48.718;9.272;2024-01-15T08:01:24;14.73;;;6.43;;
44248;SDS011;29923;48.718;9.272;2024-01-15T08:03:50;16.50;;;8.15;;
44248;SDS011;29923;48.718;9.272;2024-01-15T08:06:15;17.75;;;6.40;;
44248;SDS011;29923;48.718;9.272;2024-01-15T08:08:41;16.58;;;7.13;;
44248;SDS011;29923;48.718;9.272;2024-01-15T08:11:06;16.77;;;7.70;;
44248;SDS011;29923;48.718;9.272;2024-01-15T08:13:32;16.25;;;7.03;;
44248;SDS011;29923;48.718;9.272;2024-01-15T08:15:57;18.30;;;6.55;;
44248;SDS011;29923;48.718;9.272;2024-01-15T08:18:22;13.95;;;5.70;;
44248;SDS011;29923;48.718;9.272;2024-01-15T08:20:48;13.48;;;6.13;;
44248;SDS011;29923;48.718;9.272;2024-01-15T08:23:16;17.20;;;6.55;;
44248;SDS011;29923;48.718;9.272;2024-01-15T08:25:41;14.80;;;5.97;;
44248;SDS011;29923;48.718;9.272;2024-01-15T08:28:06;13.10;;;6.43;;
44248;SDS011;29923;48.718;9.272;2024-01-15T08:30:33;12.30;;;5.13;;
44248;SDS011;29923;48.718;9.272;2024-01-15T08:32:58;14.77;;;5.28;;
44248;SDS011;29923;48.718;9.272;2024-01-15T08:35:24;14.55;;;6.55;;
44248;SDS011;29923;48.718;9.272;2024-01-15T08:37:50;18.13;;;6.85;;
44248;SDS011;29923;48.718;9.272;2024-01-15T08:40:16;16.55;;;6.72;;
44248;SDS011;29923;48.718;9.272;2024-01-15T08:42:41;18.17;;;7.18;;
44248;SDS011;29923;48.718;9.272;2024-01-15T08:45:08;13.05;;;5.25;;
44248;SDS011;29923;48.718;9.272;2024-01-15T08:47:34;11.95;;;4.57;;
44248;SDS011;29923;48.718;9.272;2024-01-15T08:50:00;14.73;;;5.50;;
44248;SDS011;29923;48.718;9.272;2024-01-15T08:52:25;18.02;;;6.30;;
44248;SDS011;29923;48.718;9.272;2024-01-15T08:54:51;12.18;;;4.00;;
44248;SDS011;29923;48.718;9.272;2024-01-15T08:57:16;18.40;;;4.75;;
44248;SDS011;29923;48.718;9.272;2024-01-15T08:59:42;14.82;;;5.82;;
44248;SDS011;29923;48.718;9.272;2024-01-15T09:02:07;17.02;;;6.50;;
44248;SDS011;29923;48.718;9.272;2024-01-15T09:04:33;12.18;;;4.65;;
44248;SDS011;29923;48.718;9.272;2024-01-15T09:06:58;14.23;;;4.70;;
44248;SDS011;29923;48.718;9.272;2024-01-15T09:09:24;11.18;;;4.85;;
44248;SDS011;29923;48.718;9.272;2024-01-15T09:11:49;9.95;;;4.88;;
44248;SDS011;29923;48.718;9.272;2024-01-15T09:14:15;14.35;;;5.68;;
44248;SDS011;29923;48.718;9.272;2024-01-15T09:16:40;20.15;;;7.55;;
44248;SDS011;29923;48.718;9.272;2024-01-15T09:19:06;12.38;;;5.55;;
44248;SDS011;29923;48.718;9.272;2024-01-15T09:21:31;16.20;;;6.75;;
44248;SDS011;29923;48.718;9.272;2024-01-15T09:23:56;8.05;;;3.42;;
44248;SDS011;29923;48.718;9.272;2024-01-15T09:26:23;13.45;;;4.80;;
44248;SDS011;29923;48.718;9.272;2024-01-15T09:28:48;11.50;;;4.78;;
44248;SDS011;29923;48.718;9.272;2024-01-15T09:31:14;15.07;;;4.82;;
44248;SDS011;29923;48.718;9.272;2024-01-15T09:33:40;8.45;;;3.60;;
44248;SDS011;29923;48.718;9.272;2024-01-15T09:36:05;8.18;;;4.65;;
44248;SDS011;29923;48.718;9.272;2024-01-15T09:38:31;8.85;;;3.13;;
44248;SDS011;29923;48.718;9.272;2024-01-15T09:40:56;10.75;;;4.65;;
44248;SDS011;29923;48.718;9.272;2024-01-15T09:43:22;10.95;;;4.97;;
44248;SDS011;29923;48.718;9.272;2024-01-15T09:45:47;14.45;;;5.40;;
44248;SDS011;29923;48.718;9.272;2024-01-15T09:48:15;10.98;;;5.22;;
44248;SDS011;29923;48.718;9.272;2024-01-15T09:50:41;11.30;;;5.25;;
44248;SDS011;29923;48.718;9.272;2024-01-15T09:53:07;15.07;;;5.15;;
44248;SDS011;29923;48.718;9.272;2024-01-15T09:55:32;14.63;;;4.70;;
44248;SDS011;29923;48.718;9.272;2024-01-15T09:57:57;14.38;;;5.03;;
44248;SDS011;29923;48.718;9.272;2024-01-15T10:00:25;8.55;;;3.05;;
44248;SDS011;29923;48.718;9.272;2024-01-15T10:02:51;7.25;;;3.28;;
44248;SDS011;29923;48.718;9.272;2024-01-15T10:05:16;12.23;;;4.15;;
44248;SDS011;29923;48.718;9.272;2024-01-15T10:07:41;16.27;;;3.55;;
44248;SDS011;29923;48.718;9.272;2024-01-15T10:10:07;9.85;;;3.58;;
44248;SDS011;29923;48.718;9.272;2024-01-15T10:12:32;10.45;;;4.72;;
44248;SDS011;29923;48.718;9.272;2024-01-15T10:14:58;9.38;;;3.92;;
44248;SDS011;29923;48.718;9.272;2024-01-15T10:17:24;18.17;;;7.03;;
44248;SDS011;29923;48.718;9.272;2024-01-15T10:19:50;12.02;;;5.05;;
44248;SDS011;29923;48.718;9.272;2024-01-15T10:22:16;13.73;;;4.35;;
44248;SDS011;29923;48.718;9.272;2024-01-15T10:24:42;26.08;;;5.82;;
44248;SDS011;29923;48.718;9.272;2024-01-15T10:27:08;10.98;;;4.30;;
44248;SDS011;29923;48.718;9.272;2024-01-15T10:29:35;10.02;;;3.92;;
44248;SDS011;29923;48.718;9.272;2024-01-15T10:32:00;10.38;;;4.75;;
44248;SDS011;29923;48.718;9.272;2024-01-15T10:34:26;6.47;;;3.17;;
44248;SDS011;29923;48.718;9.272;2024-01-15T10:36:51;8.25;;;4.43;;
44248;SDS011;29923;48.718;9.272;2024-01-15T10:39:20;16.08;;;5.45;;
44248;SDS011;29923;48.718;9.272;2024-01-15T10:41:47;9.65;;;4.70;;
44248;SDS011;29923;48.718;9.272;2024-01-15T10:44:12;13.25;;;4.78;;
44248;SDS011;29923;48.718;9.272;2024-01-15T10:46:37;7.18;;;3.38;;
44248;SDS011;29923;48.718;9.272;2024-01-15T10:49:04;9.48;;;4.43;;
44248;SDS011;29923;48.718;9.272;2024-01-15T10:51:29;6.30;;;3.08;;
44248;SDS011;29923;48.718;9.272;2024-01-15T10:53:55;7.75;;;2.90;;
44248;SDS011;29923;48.718;9.272;2024-01-15T10:56:21;9.27;;;4.70;;
44248;SDS011;29923;48.718;9.272;2024-01-15T10:58:47;6.47;;;3.45;;
44248;SDS011;29923;48.718;9.272;2024-01-15T11:01:14;8.63;;;3.78;;
44248;SDS011;29923;48.718;9.272;2024-01-15T11:03:41;8.73;;;3.95;;
44248;SDS011;29923;48.718;9.272;2024-01-15T11:06:20;8.93;;;4.32;;
44248;SDS011;29923;48.718;9.272;2024-01-15T11:08:49;13.60;;;4.85;;
44248;SDS011;29923;48.718;9.272;2024-01-15T11:11:18;8.68;;;3.17;;
44248;SDS011;29923;48.718;9.272;2024-01-15T11:13:43;22.77;;;5.10;;
44248;SDS011;29923;48.718;9.272;2024-01-15T11:16:12;9.75;;;4.20;;
44248;SDS011;29923;48.718;9.272;2024-01-15T11:23:45;8.65;;;2.88;;
44248;SDS011;29923;48.718;9.272;2024-01-15T11:28:56;8.68;;;3.63;;
44248;SDS011;29923;48.718;9.272;2024-01-15T11:31:26;11.20;;;4.70;;
44248;SDS011;29923;48.718;9.272;2024-01-15T11:33:52;7.22;;;3.20;;
44248;SDS011;29923;48.718;9.272;2024-01-15T11:36:18;8.77;;;3.75;;
44248;SDS011;29923;48.718;9.272;2024-01-15T11:38:43;4.85;;;2.72;;
44248;SDS011;29923;48.718;9.272;2024-01-15T11:41:15;10.88;;;4.53;;
44248;SDS011;29923;48.718;9.272;2024-01-15T11:43:43;24.70;;;4.38;;
44248;SDS011;29923;48.718;9.272;2024-01-15T11:46:11;10.70;;;4.90;;
44248;SDS011;29923;48.718;9.272;2024-01-15T11:48:43;7.15;;;3.28;;
44248;SDS011;29923;48.718;9.272;2024-01-15T11:51:12;7.72;;;3.75;;
44248;SDS011;29923;48.718;9.272;2024-01-15T11:53:43;10.07;;;4.53;;
44248;SDS011;29923;48.718;9.272;2024-01-15T11:56:16;5.65;;;2.40;;
44248;SDS011;29923;48.718;9.272;2024-01-15T11:58:42;7.28;;;2.90;;
44248;SDS011;29923;48.718;9.272;2024-01-15T12:01:08;7.20;;;3.13;;
44248;SDS011;29923;48.718;9.272;2024-01-15T12:03:36;5.55;;;2.95;;
44248;SDS011;29923;48.718;9.272;2024-01-15T12:06:01;6.57;;;3.67;;
44248;SDS011;29923;48.718;9.272;2024-01-15T12:08:26;9.68;;;2.70;;
44248;SDS011;29923;48.718;9.272;2024-01-15T12:10:52;5.53;;;2.40;;
44248;SDS011;29923;48.718;9.272;2024-01-15T12:13:17;7.88;;;3.72;;
44248;SDS011;29923;48.718;9.272;2024-01-15T12:15:43;10.13;;;4.40;;
44248;SDS011;29923;48.718;9.272;2024-01-15T12:18:11;9.18;;;4.07;;
44248;SDS011;29923;48.718;9.272;2024-01-15T12:20:40;9.57;;;4.13;;
44248;SDS011;29923;48.718;9.272;2024-01-15T12:23:07;8.27;;;3.60;;
44248;SDS011;29923;48.718;9.272;2024-01-15T12:25:33;6.68;;;3.63;;
44248;SDS011;29923;48.718;9.272;2024-01-15T12:27:59;8.35;;;4.03;;
44248;SDS011;29923;48.718;9.272;2024-01-15T12:30:29;11.15;;;4.85;;
44248;SDS011;29923;48.718;9.272;2024-01-15T12:33:05;10.90;;;4.65;;
44248;SDS011;29923;48.718;9.272;2024-01-15T12:35:33;8.95;;;4.30;;
44248;SDS011;29923;48.718;9.272;2024-01-15T12:38:00;9.98;;;4.95;;
44248;SDS011;29923;48.718;9.272;2024-01-15T12:40:28;36.22;;;18.38;;
44248;SDS011;29923;48.718;9.272;2024-01-15T12:42:54;11.25;;;4.95;;
44248;SDS011;29923;48.718;9.272;2024-01-15T12:45:19;14.43;;;5.40;;
44248;SDS011;29923;48.718;9.272;2024-01-15T12:47:45;9.75;;;4.72;;
44248;SDS011;29923;48.718;9.272;2024-01-15T12:50:11;8.45;;;4.65;;
44248;SDS011;29923;48.718;9.272;2024-01-15T12:52:37;11.18;;;4.68;;
44248;SDS011;29923;48.718;9.272;2024-01-15T12:55:05;13.30;;;5.88;;
44248;SDS011;29923;48.718;9.272;2024-01-15T12:57:31;8.82;;;3.92;;
44248;SDS011;29923;48.718;9.272;2024-01-15T12:59:57;12.75;;;5.00;;
44248;SDS011;29923;48.718;9.272;2024-01-15T13:02:22;8.68;;;3.95;;
44248;SDS011;29923;48.718;9.272;2024-01-15T13:04:48;14.13;;;6.50;;
44248;SDS011;29923;48.718;9.272;2024-01-15T13:07:13;11.80;;;5.22;;
44248;SDS011;29923;48.718;9.272;2024-01-15T13:09:38;14.50;;;5.70;;
44248;SDS011;29923;48.718;9.272;2024-01-15T13:12:04;10.65;;;5.75;;
44248;SDS011;29923;48.718;9.272;2024-01-15T13:14:30;15.50;;;7.20;;
44248;SDS011;29923;48.718;9.272;2024-01-15T13:16:56;11.45;;;6.03;;
44248;SDS011;29923;48.718;9.272;2024-01-15T13:19:22;13.85;;;6.80;;
44248;SDS011;29923;48.718;9.272;2024-01-15T13:21:47;10.45;;;5.07;;
44248;SDS011;29923;48.718;9.272;2024-01-15T13:24:13;15.30;;;6.70;;
44248;SDS011;29923;48.718;9.272;2024-01-15T13:26:39;12.27;;;6.78;;
44248;SDS011;29923;48.718;9.272;2024-01-15T13:29:04;8.70;;;4.95;;
44248;SDS011;29923;48.718;9.272;2024-01-15T13:31:30;16.98;;;6.38;;
44248;SDS011;29923;48.718;9.272;2024-01-15T13:33:56;11.73;;;5.78;;
44248;SDS011;29923;48.718;9.272;2024-01-15T13:36:22;13.60;;;6.13;;
44248;SDS011;29923;48.718;9.272;2024-01-15T13:38:48;9.13;;;4.90;;
44248;SDS011;29923;48.718;9.272;2024-01-15T13:41:14;11.05;;;5.63;;
44248;SDS011;29923;48.718;9.272;2024-01-15T13:43:40;8.32;;;4.15;;
44248;SDS011;29923;48.718;9.272;2024-01-15T13:46:05;14.23;;;6.13;;
44248;SDS011;29923;48.718;9.272;2024-01-15T13:48:31;9.10;;;4.30;;
44248;SDS011;29923;48.718;9.272;2024-01-15T13:50:59;16.77;;;7.10;;
44248;SDS011;29923;48.718;9.272;2024-01-15T13:53:24;11.32;;;4.75;;
44248;SDS011;29923;48.718;9.272;2024-01-15T13:55:51;9.35;;;4.80;;
44248;SDS011;29923;48.718;9.272;2024-01-15T13:58:16;10.75;;;4.90;;
44248;SDS011;29923;48.718;9.272;2024-01-15T14:00:43;10.68;;;5.38;;
44248;SDS011;29923;48.718;9.272;2024-01-15T14:03:09;11.52;;;5.65;;
44248;SDS011;29923;48.718;9.272;2024-01-15T14:05:34;10.35;;;4.72;;
44248;SDS011;29923;48.718;9.272;2024-01-15T14:07:59;7.95;;;3.60;;
44248;SDS011;29923;48.718;9.272;2024-01-15T14:10:25;15.07;;;5.53;;
44248;SDS011;29923;48.718;9.272;2024-01-15T14:12:50;9.80;;;4.68;;
44248;SDS011;29923;48.718;9.272;2024-01-15T14:15:16;9.13;;;4.57;;
44248;SDS011;29923;48.718;9.272;2024-01-15T14:17:41;9.05;;;3.95;;
44248;SDS011;29923;48.718;9.272;2024-01-15T14:20:06;7.75;;;4.10;;
44248;SDS011;29923;48.718;9.272;2024-01-15T14:22:34;12.32;;;4.68;;
44248;SDS011;29923;48.718;9.272;2024-01-15T14:24:59;12.25;;;5.00;;
44248;SDS011;29923;48.718;9.272;2024-01-15T14:27:25;10.13;;;4.32;;
44248;SDS011;29923;48.718;9.272;2024-01-15T14:29:51;10.23;;;4.50;;
44248;SDS011;29923;48.718;9.272;2024-01-15T14:32:16;6.18;;;3.08;;